sensor_id;sensor_type;location;lat;lon;timestamp;temperature;humidity
67141;DHT22;54058;52.010;5.546;2022-12-18T00:01:57;0.40;82.00
67141;DHT22;54058;52.010;5.546;2022-12-18T00:04:25;0.20;82.00
67141;DHT22;54058;52.010;5.546;2022-12-18T00:06:51;0.20;82.60
67141;DHT22;54058;52.010;5.546;2022-12-18T00:09:17;0.20;82.50
67141;DHT22;54058;52.010;5.546;2022-12-18T00:11:43;0.20;82.60
67141;DHT22;54058;52.010;5.546;2022-12-18T00:14:11;0.20;82.60
67141;DHT22;54058;52.010;5.546;2022-12-18T00:16:37;0.20;82.60
67141;DHT22;54058;52.010;5.546;2022-12-18T00:19:03;0.10;82.30
67141;DHT22;54058;52.010;5.546;2022-12-18T00:21:30;-0.10;82.10
67141;DHT22;54058;52.010;5.546;2022-12-18T00:23:57;-0.10;82.60
67141;DHT22;54058;52.010;5.546;2022-12-18T00:26:26;-0.20;82.50
67141;DHT22;54058;52.010;5.546;2022-12-18T00:28:53;-0.20;82.60
67141;DHT22;54058;52.010;5.546;2022-12-18T00:31:22;-0.30;82.60
67141;DHT22;54058;52.010;5.546;2022-12-18T00:33:48;-0.40;82.70
67141;DHT22;54058;52.010;5.546;2022-12-18T00:36:19;-0.50;83.10
67141;DHT22;54058;52.010;5.546;2022-12-18T00:38:46;-0.50;83.70
67141;DHT22;54058;52.010;5.546;2022-12-18T00:41:13;-0.40;83.30
67141;DHT22;54058;52.010;5.546;2022-12-18T00:43:59;-0.30;83.30
67141;DHT22;54058;52.010;5.546;2022-12-18T00:46:25;-0.20;83.30
67141;DHT22;54058;52.010;5.546;2022-12-18T00:48:50;-0.10;83.20
67141;DHT22;54058;52.010;5.546;2022-12-18T00:51:16;-0.10;82.90
67141;DHT22;54058;52.010;5.546;2022-12-18T00:53:41;-0.10;82.80
67141;DHT22;54058;52.010;5.546;2022-12-18T00:56:07;-0.20;82.30
67141;DHT22;54058;52.010;5.546;2022-12-18T00:58:33;-0.40;82.30
67141;DHT22;54058;52.010;5.546;2022-12-18T01:00:58;-0.40;82.80
67141;DHT22;54058;52.010;5.546;2022-12-18T01:03:24;-0.50;82.80
67141;DHT22;54058;52.010;5.546;2022-12-18T01:05:49;-0.60;82.20
67141;DHT22;54058;52.010;5.546;2022-12-18T01:08:15;-0.80;82.40
67141;DHT22;54058;52.010;5.546;2022-12-18T01:10:41;-0.90;82.50
67141;DHT22;54058;52.010;5.546;2022-12-18T01:13:06;-1.00;82.80
67141;DHT22;54058;52.010;5.546;2022-12-18T01:15:32;-1.00;82.90
67141;DHT22;54058;52.010;5.546;2022-12-18T01:17:58;-1.00;83.00
67141;DHT22;54058;52.010;5.546;2022-12-18T01:20:23;-0.90;83.20
67141;DHT22;54058;52.010;5.546;2022-12-18T01:22:49;-0.90;83.20
67141;DHT22;54058;52.010;5.546;2022-12-18T01:25:14;-0.80;83.10
67141;DHT22;54058;52.010;5.546;2022-12-18T01:27:40;-0.70;83.00
67141;DHT22;54058;52.010;5.546;2022-12-18T01:30:06;-0.80;82.60
67141;DHT22;54058;52.010;5.546;2022-12-18T01:32:32;-0.80;82.50
67141;DHT22;54058;52.010;5.546;2022-12-18T01:34:58;-0.80;82.40
67141;DHT22;54058;52.010;5.546;2022-12-18T01:37:24;-0.70;82.30
67141;DHT22;54058;52.010;5.546;2022-12-18T01:39:49;-0.80;82.20
67141;DHT22;54058;52.010;5.546;2022-12-18T01:42:15;-0.80;82.10
67141;DHT22;54058;52.010;5.546;2022-12-18T01:47:41;-1.00;81.70
67141;DHT22;54058;52.010;5.546;2022-12-18T01:52:46;-1.10;82.20
67141;DHT22;54058;52.010;5.546;2022-12-18T01:55:12;-1.10;82.30
67141;DHT22;54058;52.010;5.546;2022-12-18T01:57:39;-1.00;82.30
67141;DHT22;54058;52.010;5.546;2022-12-18T02:00:11;-1.00;82.50
67141;DHT22;54058;52.010;5.546;2022-12-18T02:02:37;-0.90;82.40
67141;DHT22;54058;52.010;5.546;2022-12-18T02:05:04;-0.90;82.20
67141;DHT22;54058;52.010;5.546;2022-12-18T02:07:44;-0.90;82.00
67141;DHT22;54058;52.010;5.546;2022-12-18T02:10:27;-1.00;81.30
67141;DHT22;54058;52.010;5.546;2022-12-18T02:13:12;-1.30;81.10
67141;DHT22;54058;52.010;5.546;2022-12-18T02:18:13;-1.40;81.60
67141;DHT22;54058;52.010;5.546;2022-12-18T02:21:32;-1.40;81.80
67141;DHT22;54058;52.010;5.546;2022-12-18T02:24:11;-1.50;82.10
67141;DHT22;54058;52.010;5.546;2022-12-18T02:26:59;-1.40;82.30
67141;DHT22;54058;52.010;5.546;2022-12-18T02:29:31;-1.40;82.20
67141;DHT22;54058;52.010;5.546;2022-12-18T02:31:59;-1.40;81.90
67141;DHT22;54058;52.010;5.546;2022-12-18T02:34:28;-1.50;81.90
67141;DHT22;54058;52.010;5.546;2022-12-18T02:36:55;-1.60;81.90
67141;DHT22;54058;52.010;5.546;2022-12-18T02:39:24;-1.60;81.70
67141;DHT22;54058;52.010;5.546;2022-12-18T02:41:50;-1.60;81.80
67141;DHT22;54058;52.010;5.546;2022-12-18T02:44:16;-1.70;81.50
67141;DHT22;54058;52.010;5.546;2022-12-18T02:46:44;-1.80;81.60
67141;DHT22;54058;52.010;5.546;2022-12-18T02:52:01;-1.90;81.90
67141;DHT22;54058;52.010;5.546;2022-12-18T03:00:13;-2.00;81.90
67141;DHT22;54058;52.010;5.546;2022-12-18T03:02:52;-2.10;82.10
67141;DHT22;54058;52.010;5.546;2022-12-18T03:05:25;-2.10;82.20
67141;DHT22;54058;52.010;5.546;2022-12-18T03:08:07;-2.00;82.40
67141;DHT22;54058;52.010;5.546;2022-12-18T03:10:38;-1.90;82.40
67141;DHT22;54058;52.010;5.546;2022-12-18T03:13:08;-1.90;82.80
67141;DHT22;54058;52.010;5.546;2022-12-18T03:15:45;-1.80;82.40
67141;DHT22;54058;52.010;5.546;2022-12-18T03:18:26;-1.70;82.40
67141;DHT22;54058;52.010;5.546;2022-12-18T03:20:56;-1.60;82.30
67141;DHT22;54058;52.010;5.546;2022-12-18T03:23:27;-1.60;81.80
67141;DHT22;54058;52.010;5.546;2022-12-18T03:25:57;-1.60;81.70
67141;DHT22;54058;52.010;5.546;2022-12-18T03:28:24;-1.70;81.30
67141;DHT22;54058;52.010;5.546;2022-12-18T03:30:56;-1.80;81.90
67141;DHT22;54058;52.010;5.546;2022-12-18T03:33:30;-1.70;81.70
67141;DHT22;54058;52.010;5.546;2022-12-18T03:35:57;-1.70;81.50
67141;DHT22;54058;52.010;5.546;2022-12-18T03:38:23;-1.70;81.60
67141;DHT22;54058;52.010;5.546;2022-12-18T03:40:59;-1.70;81.50
67141;DHT22;54058;52.010;5.546;2022-12-18T03:43:34;-1.70;81.70
67141;DHT22;54058;52.010;5.546;2022-12-18T03:48:59;-1.70;81.50
67141;DHT22;54058;52.010;5.546;2022-12-18T03:51:35;-1.70;81.50
67141;DHT22;54058;52.010;5.546;2022-12-18T03:54:04;-1.70;81.60
67141;DHT22;54058;52.010;5.546;2022-12-18T03:56:35;-1.60;81.70
67141;DHT22;54058;52.010;5.546;2022-12-18T03:59:04;-1.60;81.70
67141;DHT22;54058;52.010;5.546;2022-12-18T04:01:33;-1.60;81.60
67141;DHT22;54058;52.010;5.546;2022-12-18T04:04:00;-1.50;81.60
67141;DHT22;54058;52.010;5.546;2022-12-18T04:06:28;-1.60;81.10
67141;DHT22;54058;52.010;5.546;2022-12-18T04:08:54;-1.60;81.20
67141;DHT22;54058;52.010;5.546;2022-12-18T04:11:20;-1.70;81.00
67141;DHT22;54058;52.010;5.546;2022-12-18T04:13:45;-1.70;81.10
67141;DHT22;54058;52.010;5.546;2022-12-18T04:16:11;-1.80;81.20
67141;DHT22;54058;52.010;5.546;2022-12-18T04:18:37;-1.70;81.40
67141;DHT22;54058;52.010;5.546;2022-12-18T04:21:03;-1.70;81.40
67141;DHT22;54058;52.010;5.546;2022-12-18T04:23:28;-1.70;81.20
67141;DHT22;54058;52.010;5.546;2022-12-18T04:25:54;-1.80;81.10
67141;DHT22;54058;52.010;5.546;2022-12-18T04:28:21;-1.80;81.30
67141;DHT22;54058;52.010;5.546;2022-12-18T04:30:49;-1.80;81.40
67141;DHT22;54058;52.010;5.546;2022-12-18T04:33:16;-1.80;81.40
67141;DHT22;54058;52.010;5.546;2022-12-18T04:35:42;-1.80;81.60
67141;DHT22;54058;52.010;5.546;2022-12-18T04:38:09;-1.80;81.60
67141;DHT22;54058;52.010;5.546;2022-12-18T04:40:36;-1.70;81.70
67141;DHT22;54058;52.010;5.546;2022-12-18T04:43:02;-1.60;81.70
67141;DHT22;54058;52.010;5.546;2022-12-18T04:45:27;-1.60;81.60
67141;DHT22;54058;52.010;5.546;2022-12-18T04:47:53;-1.50;81.60
67141;DHT22;54058;52.010;5.546;2022-12-18T04:50:18;-1.50;81.40
67141;DHT22;54058;52.010;5.546;2022-12-18T04:52:44;-1.50;81.40
67141;DHT22;54058;52.010;5.546;2022-12-18T04:55:10;-1.50;81.40
67141;DHT22;54058;52.010;5.546;2022-12-18T04:57:35;-1.40;81.40
67141;DHT22;54058;52.010;5.546;2022-12-18T05:00:01;-1.40;81.30
67141;DHT22;54058;52.010;5.546;2022-12-18T05:02:27;-1.40;81.10
67141;DHT22;54058;52.010;5.546;2022-12-18T05:04:52;-1.40;81.00
67141;DHT22;54058;52.010;5.546;2022-12-18T05:07:18;-1.40;81.00
67141;DHT22;54058;52.010;5.546;2022-12-18T05:09:43;-1.30;81.10
67141;DHT22;54058;52.010;5.546;2022-12-18T05:12:09;-1.40;80.90
67141;DHT22;54058;52.010;5.546;2022-12-18T05:14:35;-1.40;81.00
67141;DHT22;54058;52.010;5.546;2022-12-18T05:17:00;-1.40;80.80
67141;DHT22;54058;52.010;5.546;2022-12-18T05:19:26;-1.40;80.90
67141;DHT22;54058;52.010;5.546;2022-12-18T05:21:51;-1.40;81.00
67141;DHT22;54058;52.010;5.546;2022-12-18T05:24:17;-1.40;81.10
67141;DHT22;54058;52.010;5.546;2022-12-18T05:26:43;-1.40;81.10
67141;DHT22;54058;52.010;5.546;2022-12-18T05:29:08;-1.40;81.00
67141;DHT22;54058;52.010;5.546;2022-12-18T05:31:37;-1.40;80.80
67141;DHT22;54058;52.010;5.546;2022-12-18T05:34:03;-1.50;80.50
67141;DHT22;54058;52.010;5.546;2022-12-18T05:36:28;-1.60;80.90
67141;DHT22;54058;52.010;5.546;2022-12-18T05:38:54;-1.60;81.00
67141;DHT22;54058;52.010;5.546;2022-12-18T05:41:20;-1.50;81.20
67141;DHT22;54058;52.010;5.546;2022-12-18T05:43:45;-1.60;80.40
67141;DHT22;54058;52.010;5.546;2022-12-18T05:46:16;-1.70;80.50
67141;DHT22;54058;52.010;5.546;2022-12-18T05:48:43;-1.80;80.70
67141;DHT22;54058;52.010;5.546;2022-12-18T05:51:15;-1.80;80.80
67141;DHT22;54058;52.010;5.546;2022-12-18T05:53:42;-1.90;80.80
67141;DHT22;54058;52.010;5.546;2022-12-18T05:56:11;-2.00;80.70
67141;DHT22;54058;52.010;5.546;2022-12-18T05:58:37;-2.00;80.90
67141;DHT22;54058;52.010;5.546;2022-12-18T06:01:18;-2.00;81.20
67141;DHT22;54058;52.010;5.546;2022-12-18T06:03:44;-1.90;81.50
67141;DHT22;54058;52.010;5.546;2022-12-18T06:06:22;-1.80;81.60
67141;DHT22;54058;52.010;5.546;2022-12-18T06:08:48;-1.80;81.40
67141;DHT22;54058;52.010;5.546;2022-12-18T06:11:19;-1.70;81.30
67141;DHT22;54058;52.010;5.546;2022-12-18T06:13:45;-1.70;81.20
67141;DHT22;54058;52.010;5.546;2022-12-18T06:16:11;-1.70;81.10
67141;DHT22;54058;52.010;5.546;2022-12-18T06:18:37;-1.60;81.00
67141;DHT22;54058;52.010;5.546;2022-12-18T06:21:03;-1.60;81.00
67141;DHT22;54058;52.010;5.546;2022-12-18T06:23:28;-1.70;80.80
67141;DHT22;54058;52.010;5.546;2022-12-18T06:25:54;-1.70;80.70
67141;DHT22;54058;52.010;5.546;2022-12-18T06:28:20;-1.70;80.90
67141;DHT22;54058;52.010;5.546;2022-12-18T06:30:47;-1.70;80.90
67141;DHT22;54058;52.010;5.546;2022-12-18T06:33:14;-1.60;81.00
67141;DHT22;54058;52.010;5.546;2022-12-18T06:35:40;-1.60;81.10
67141;DHT22;54058;52.010;5.546;2022-12-18T06:38:05;-1.60;80.90
67141;DHT22;54058;52.010;5.546;2022-12-18T06:40:31;-1.60;80.80
67141;DHT22;54058;52.010;5.546;2022-12-18T06:42:56;-1.60;80.80
67141;DHT22;54058;52.010;5.546;2022-12-18T06:45:22;-1.60;80.80
67141;DHT22;54058;52.010;5.546;2022-12-18T06:47:47;-1.60;80.90
67141;DHT22;54058;52.010;5.546;2022-12-18T06:50:13;-1.60;80.90
67141;DHT22;54058;52.010;5.546;2022-12-18T06:52:39;-1.60;80.80
67141;DHT22;54058;52.010;5.546;2022-12-18T06:55:06;-1.60;80.80
67141;DHT22;54058;52.010;5.546;2022-12-18T06:57:33;-1.70;80.80
67141;DHT22;54058;52.010;5.546;2022-12-18T06:59:58;-1.70;80.70
67141;DHT22;54058;52.010;5.546;2022-12-18T07:02:24;-1.70;80.90
67141;DHT22;54058;52.010;5.546;2022-12-18T07:04:49;-1.60;81.00
67141;DHT22;54058;52.010;5.546;2022-12-18T07:07:15;-1.60;81.00
67141;DHT22;54058;52.010;5.546;2022-12-18T07:09:41;-1.60;81.50
67141;DHT22;54058;52.010;5.546;2022-12-18T07:12:06;-1.60;80.90
67141;DHT22;54058;52.010;5.546;2022-12-18T07:14:33;-1.50;80.90
67141;DHT22;54058;52.010;5.546;2022-12-18T07:16:59;-1.50;80.90
67141;DHT22;54058;52.010;5.546;2022-12-18T07:19:25;-1.50;80.80
67141;DHT22;54058;52.010;5.546;2022-12-18T07:21:51;-1.50;80.80
67141;DHT22;54058;52.010;5.546;2022-12-18T07:24:17;-1.50;80.80
67141;DHT22;54058;52.010;5.546;2022-12-18T07:26:45;-1.60;80.60
67141;DHT22;54058;52.010;5.546;2022-12-18T07:29:11;-1.50;80.70
67141;DHT22;54058;52.010;5.546;2022-12-18T07:31:37;-1.60;80.80
67141;DHT22;54058;52.010;5.546;2022-12-18T07:34:03;-1.70;80.20
67141;DHT22;54058;52.010;5.546;2022-12-18T07:36:28;-1.80;80.20
67141;DHT22;54058;52.010;5.546;2022-12-18T07:38:54;-1.80;80.40
67141;DHT22;54058;52.010;5.546;2022-12-18T07:41:20;-1.80;80.80
67141;DHT22;54058;52.010;5.546;2022-12-18T07:43:46;-1.80;80.90
67141;DHT22;54058;52.010;5.546;2022-12-18T07:46:12;-1.80;80.90
67141;DHT22;54058;52.010;5.546;2022-12-18T07:48:42;-1.80;80.90
67141;DHT22;54058;52.010;5.546;2022-12-18T07:51:08;-1.80;80.70
67141;DHT22;54058;52.010;5.546;2022-12-18T07:53:34;-1.90;80.80
67141;DHT22;54058;52.010;5.546;2022-12-18T07:56:03;-1.80;81.00
67141;DHT22;54058;52.010;5.546;2022-12-18T07:58:29;-1.80;81.00
67141;DHT22;54058;52.010;5.546;2022-12-18T08:01:03;-1.70;81.10
67141;DHT22;54058;52.010;5.546;2022-12-18T08:03:29;-1.70;81.10
67141;DHT22;54058;52.010;5.546;2022-12-18T08:06:01;-1.70;81.10
67141;DHT22;54058;52.010;5.546;2022-12-18T08:08:28;-1.60;81.20
67141;DHT22;54058;52.010;5.546;2022-12-18T08:10:54;-1.50;81.10
67141;DHT22;54058;52.010;5.546;2022-12-18T08:13:19;-1.50;81.20
67141;DHT22;54058;52.010;5.546;2022-12-18T08:15:45;-1.40;81.00
67141;DHT22;54058;52.010;5.546;2022-12-18T08:18:11;-1.40;80.80
67141;DHT22;54058;52.010;5.546;2022-12-18T08:20:36;-1.50;80.80
67141;DHT22;54058;52.010;5.546;2022-12-18T08:23:02;-1.50;80.90
67141;DHT22;54058;52.010;5.546;2022-12-18T08:25:27;-1.40;81.20
67141;DHT22;54058;52.010;5.546;2022-12-18T08:27:53;-1.40;80.90
67141;DHT22;54058;52.010;5.546;2022-12-18T08:30:19;-1.40;80.80
67141;DHT22;54058;52.010;5.546;2022-12-18T08:32:44;-1.40;80.90
67141;DHT22;54058;52.010;5.546;2022-12-18T08:35:10;-1.30;81.10
67141;DHT22;54058;52.010;5.546;2022-12-18T08:37:37;-1.20;81.30
67141;DHT22;54058;52.010;5.546;2022-12-18T08:40:03;-1.20;81.30
67141;DHT22;54058;52.010;5.546;2022-12-18T08:42:29;-1.10;81.30
67141;DHT22;54058;52.010;5.546;2022-12-18T08:45:13;-1.10;81.10
67141;DHT22;54058;52.010;5.546;2022-12-18T08:47:38;-1.10;80.80
67141;DHT22;54058;52.010;5.546;2022-12-18T08:50:04;-1.10;81.00
67141;DHT22;54058;52.010;5.546;2022-12-18T08:52:32;-1.10;80.70
67141;DHT22;54058;52.010;5.546;2022-12-18T08:54:58;-1.10;81.00
67141;DHT22;54058;52.010;5.546;2022-12-18T08:57:23;-1.10;81.10
67141;DHT22;54058;52.010;5.546;2022-12-18T08:59:49;-1.10;80.90
67141;DHT22;54058;52.010;5.546;2022-12-18T09:02:15;-1.10;80.90
67141;DHT22;54058;52.010;5.546;2022-12-18T09:04:40;-1.10;81.10
67141;DHT22;54058;52.010;5.546;2022-12-18T09:07:06;-1.10;81.30
67141;DHT22;54058;52.010;5.546;2022-12-18T09:09:32;-1.00;81.10
67141;DHT22;54058;52.010;5.546;2022-12-18T09:11:58;-1.10;80.70
67141;DHT22;54058;52.010;5.546;2022-12-18T09:14:23;-1.10;81.20
67141;DHT22;54058;52.010;5.546;2022-12-18T09:16:49;-1.00;81.50
67141;DHT22;54058;52.010;5.546;2022-12-18T09:19:15;-0.90;81.60
67141;DHT22;54058;52.010;5.546;2022-12-18T09:21:40;-0.90;81.20
67141;DHT22;54058;52.010;5.546;2022-12-18T09:24:14;-0.90;81.40
67141;DHT22;54058;52.010;5.546;2022-12-18T09:26:40;-0.80;81.50
67141;DHT22;54058;52.010;5.546;2022-12-18T09:29:05;-0.70;81.60
67141;DHT22;54058;52.010;5.546;2022-12-18T09:31:33;-0.60;81.70
67141;DHT22;54058;52.010;5.546;2022-12-18T09:33:59;-0.50;81.60
67141;DHT22;54058;52.010;5.546;2022-12-18T09:36:25;-0.50;81.60
67141;DHT22;54058;52.010;5.546;2022-12-18T09:38:51;-0.40;81.80
67141;DHT22;54058;52.010;5.546;2022-12-18T09:43:48;-0.30;81.50
67141;DHT22;54058;52.010;5.546;2022-12-18T09:46:34;-0.30;81.30
67141;DHT22;54058;52.010;5.546;2022-12-18T09:49:06;-0.20;81.20
67141;DHT22;54058;52.010;5.546;2022-12-18T09:52:04;-0.20;81.20
67141;DHT22;54058;52.010;5.546;2022-12-18T09:54:40;-0.20;81.30
67141;DHT22;54058;52.010;5.546;2022-12-18T09:57:23;-0.20;81.40
67141;DHT22;54058;52.010;5.546;2022-12-18T10:00:23;-0.20;81.50
67141;DHT22;54058;52.010;5.546;2022-12-18T10:02:49;-0.10;81.40
67141;DHT22;54058;52.010;5.546;2022-12-18T10:05:20;-0.10;81.50
67141;DHT22;54058;52.010;5.546;2022-12-18T10:08:10;-0.10;81.40
67141;DHT22;54058;52.010;5.546;2022-12-18T10:10:46;-0.10;81.10
67141;DHT22;54058;52.010;5.546;2022-12-18T10:13:26;-0.10;81.20
67141;DHT22;54058;52.010;5.546;2022-12-18T10:21:40;0.00;81.40
67141;DHT22;54058;52.010;5.546;2022-12-18T10:24:19;0.10;81.70
67141;DHT22;54058;52.010;5.546;2022-12-18T10:26:47;0.20;81.70
67141;DHT22;54058;52.010;5.546;2022-12-18T10:29:14;0.10;81.10
67141;DHT22;54058;52.010;5.546;2022-12-18T10:31:41;0.10;81.30
67141;DHT22;54058;52.010;5.546;2022-12-18T10:34:10;0.20;81.60
67141;DHT22;54058;52.010;5.546;2022-12-18T10:36:35;0.30;81.80
67141;DHT22;54058;52.010;5.546;2022-12-18T10:39:21;0.40;81.70
67141;DHT22;54058;52.010;5.546;2022-12-18T10:41:52;0.50;81.30
67141;DHT22;54058;52.010;5.546;2022-12-18T10:44:34;0.50;81.40
67141;DHT22;54058;52.010;5.546;2022-12-18T10:47:05;0.60;81.70
67141;DHT22;54058;52.010;5.546;2022-12-18T10:49:33;0.70;81.70
67141;DHT22;54058;52.010;5.546;2022-12-18T10:52:17;0.70;81.50
67141;DHT22;54058;52.010;5.546;2022-12-18T10:54:48;0.70;81.10
67141;DHT22;54058;52.010;5.546;2022-12-18T10:57:31;0.70;80.90
67141;DHT22;54058;52.010;5.546;2022-12-18T11:00:00;0.70;81.20
67141;DHT22;54058;52.010;5.546;2022-12-18T11:04:54;0.80;81.20
67141;DHT22;54058;52.010;5.546;2022-12-18T11:07:19;0.80;80.80
67141;DHT22;54058;52.010;5.546;2022-12-18T11:10:02;0.90;81.30
67141;DHT22;54058;52.010;5.546;2022-12-18T11:12:28;1.00;81.30
67141;DHT22;54058;52.010;5.546;2022-12-18T11:14:55;1.00;80.90
67141;DHT22;54058;52.010;5.546;2022-12-18T11:19:58;1.00;80.80
67141;DHT22;54058;52.010;5.546;2022-12-18T11:22:30;1.00;81.10
67141;DHT22;54058;52.010;5.546;2022-12-18T11:25:06;1.00;80.80
67141;DHT22;54058;52.010;5.546;2022-12-18T11:27:33;1.00;81.00
67141;DHT22;54058;52.010;5.546;2022-12-18T11:30:28;1.00;81.00
67141;DHT22;54058;52.010;5.546;2022-12-18T11:33:06;1.00;80.50
67141;DHT22;54058;52.010;5.546;2022-12-18T11:38:21;1.10;81.20
67141;DHT22;54058;52.010;5.546;2022-12-18T11:41:09;1.20;81.50
67141;DHT22;54058;52.010;5.546;2022-12-18T11:43:45;1.20;80.90
67141;DHT22;54058;52.010;5.546;2022-12-18T11:46:34;1.30;81.00
67141;DHT22;54058;52.010;5.546;2022-12-18T11:49:24;1.30;80.70
67141;DHT22;54058;52.010;5.546;2022-12-18T11:52:04;1.40;81.00
67141;DHT22;54058;52.010;5.546;2022-12-18T11:54:34;1.50;81.10
67141;DHT22;54058;52.010;5.546;2022-12-18T12:00:07;1.50;80.70
67141;DHT22;54058;52.010;5.546;2022-12-18T12:02:42;1.50;80.80
67141;DHT22;54058;52.010;5.546;2022-12-18T12:10:42;1.60;80.80
67141;DHT22;54058;52.010;5.546;2022-12-18T12:16:25;1.60;80.70
67141;DHT22;54058;52.010;5.546;2022-12-18T12:19:25;1.60;80.90
67141;DHT22;54058;52.010;5.546;2022-12-18T12:38:09;1.80;80.30
67141;DHT22;54058;52.010;5.546;2022-12-18T12:40:42;1.80;80.30
67141;DHT22;54058;52.010;5.546;2022-12-18T12:43:38;1.80;80.80
67141;DHT22;54058;52.010;5.546;2022-12-18T12:46:14;1.90;80.70
67141;DHT22;54058;52.010;5.546;2022-12-18T12:48:47;1.90;80.00
67141;DHT22;54058;52.010;5.546;2022-12-18T12:51:24;1.90;80.10
67141;DHT22;54058;52.010;5.546;2022-12-18T12:53:51;1.90;80.50
67141;DHT22;54058;52.010;5.546;2022-12-18T12:56:19;2.00;80.90
67141;DHT22;54058;52.010;5.546;2022-12-18T12:59:18;2.00;79.90
67141;DHT22;54058;52.010;5.546;2022-12-18T13:01:53;2.00;79.90
67141;DHT22;54058;52.010;5.546;2022-12-18T13:04:45;2.00;79.80
67141;DHT22;54058;52.010;5.546;2022-12-18T13:07:24;2.00;79.50
67141;DHT22;54058;52.010;5.546;2022-12-18T13:10:14;2.00;79.90
67141;DHT22;54058;52.010;5.546;2022-12-18T13:13:15;2.00;79.30
67141;DHT22;54058;52.010;5.546;2022-12-18T13:16:03;2.00;79.30
67141;DHT22;54058;52.010;5.546;2022-12-18T13:18:30;1.90;79.70
67141;DHT22;54058;52.010;5.546;2022-12-18T13:31:13;2.00;79.40
67141;DHT22;54058;52.010;5.546;2022-12-18T13:33:45;2.00;78.00
67141;DHT22;54058;52.010;5.546;2022-12-18T13:36:37;2.00;79.30
67141;DHT22;54058;52.010;5.546;2022-12-18T13:41:45;2.00;79.40
67141;DHT22;54058;52.010;5.546;2022-12-18T13:44:25;2.00;79.60
67141;DHT22;54058;52.010;5.546;2022-12-18T13:46:52;2.10;79.40
67141;DHT22;54058;52.010;5.546;2022-12-18T13:49:23;2.00;79.60
67141;DHT22;54058;52.010;5.546;2022-12-18T13:51:51;2.10;79.80
67141;DHT22;54058;52.010;5.546;2022-12-18T13:54:36;2.00;79.50
67141;DHT22;54058;52.010;5.546;2022-12-18T13:57:04;2.00;79.40
67141;DHT22;54058;52.010;5.546;2022-12-18T14:02:04;2.00;79.60
67141;DHT22;54058;52.010;5.546;2022-12-18T14:04:33;2.00;79.80
67141;DHT22;54058;52.010;5.546;2022-12-18T14:07:07;2.00;79.50
67141;DHT22;54058;52.010;5.546;2022-12-18T14:09:56;2.00;79.60
67141;DHT22;54058;52.010;5.546;2022-12-18T14:12:28;2.00;79.90
67141;DHT22;54058;52.010;5.546;2022-12-18T14:15:34;2.00;80.00
67141;DHT22;54058;52.010;5.546;2022-12-18T14:20:47;2.00;79.10
67141;DHT22;54058;52.010;5.546;2022-12-18T14:23:29;1.90;79.20
67141;DHT22;54058;52.010;5.546;2022-12-18T14:25:55;1.90;77.80
67141;DHT22;54058;52.010;5.546;2022-12-18T14:28:21;1.90;79.50
67141;DHT22;54058;52.010;5.546;2022-12-18T14:30:48;1.90;79.50
67141;DHT22;54058;52.010;5.546;2022-12-18T14:33:20;2.00;79.40
67141;DHT22;54058;52.010;5.546;2022-12-18T14:35:57;2.00;79.60
67141;DHT22;54058;52.010;5.546;2022-12-18T14:38:38;2.00;79.60
67141;DHT22;54058;52.010;5.546;2022-12-18T14:41:09;2.00;79.80
67141;DHT22;54058;52.010;5.546;2022-12-18T14:43:37;2.00;79.80
67141;DHT22;54058;52.010;5.546;2022-12-18T14:48:59;2.00;79.40
67141;DHT22;54058;52.010;5.546;2022-12-18T14:51:25;2.00;79.50
67141;DHT22;54058;52.010;5.546;2022-12-18T14:54:03;2.00;77.50
67141;DHT22;54058;52.010;5.546;2022-12-18T14:56:34;2.00;78.90
67141;DHT22;54058;52.010;5.546;2022-12-18T14:59:03;2.00;79.20
67141;DHT22;54058;52.010;5.546;2022-12-18T15:01:36;2.00;78.90
67141;DHT22;54058;52.010;5.546;2022-12-18T15:04:03;2.00;79.10
67141;DHT22;54058;52.010;5.546;2022-12-18T15:08:56;2.00;79.00
67141;DHT22;54058;52.010;5.546;2022-12-18T15:11:44;1.90;78.50
67141;DHT22;54058;52.010;5.546;2022-12-18T15:14:33;2.00;78.80
67141;DHT22;54058;52.010;5.546;2022-12-18T15:17:02;2.00;79.10
67141;DHT22;54058;52.010;5.546;2022-12-18T15:19:40;2.00;78.20
67141;DHT22;54058;52.010;5.546;2022-12-18T15:22:35;2.00;78.20
67141;DHT22;54058;52.010;5.546;2022-12-18T15:25:03;2.00;77.40
67141;DHT22;54058;52.010;5.546;2022-12-18T15:27:36;1.90;77.60
67141;DHT22;54058;52.010;5.546;2022-12-18T15:32:36;1.90;78.50
67141;DHT22;54058;52.010;5.546;2022-12-18T15:37:37;2.00;78.60
67141;DHT22;54058;52.010;5.546;2022-12-18T15:40:03;2.00;78.00
67141;DHT22;54058;52.010;5.546;2022-12-18T15:42:29;2.00;78.70
67141;DHT22;54058;52.010;5.546;2022-12-18T15:45:14;2.00;78.70
67141;DHT22;54058;52.010;5.546;2022-12-18T15:47:40;2.10;78.50
67141;DHT22;54058;52.010;5.546;2022-12-18T15:50:09;2.10;78.70
67141;DHT22;54058;52.010;5.546;2022-12-18T15:52:43;2.10;78.60
67141;DHT22;54058;52.010;5.546;2022-12-18T15:55:18;2.10;78.80
67141;DHT22;54058;52.010;5.546;2022-12-18T15:58:02;2.10;78.60
67141;DHT22;54058;52.010;5.546;2022-12-18T16:00:28;2.10;78.50
67141;DHT22;54058;52.010;5.546;2022-12-18T16:02:53;2.10;78.10
67141;DHT22;54058;52.010;5.546;2022-12-18T16:05:20;2.10;78.40
67141;DHT22;54058;52.010;5.546;2022-12-18T16:07:47;2.10;78.50
67141;DHT22;54058;52.010;5.546;2022-12-18T16:10:13;2.10;78.10
67141;DHT22;54058;52.010;5.546;2022-12-18T16:12:38;2.10;78.50
67141;DHT22;54058;52.010;5.546;2022-12-18T16:15:05;2.00;78.00
67141;DHT22;54058;52.010;5.546;2022-12-18T16:17:31;2.00;78.20
67141;DHT22;54058;52.010;5.546;2022-12-18T16:19:57;2.00;77.80
67141;DHT22;54058;52.010;5.546;2022-12-18T16:22:28;2.00;78.20
67141;DHT22;54058;52.010;5.546;2022-12-18T16:24:55;2.00;78.60
67141;DHT22;54058;52.010;5.546;2022-12-18T16:27:24;1.90;76.80
67141;DHT22;54058;52.010;5.546;2022-12-18T16:29:50;1.90;77.70
67141;DHT22;54058;52.010;5.546;2022-12-18T16:32:18;1.90;77.40
67141;DHT22;54058;52.010;5.546;2022-12-18T16:34:44;1.80;76.80
67141;DHT22;54058;52.010;5.546;2022-12-18T16:37:12;1.90;77.80
67141;DHT22;54058;52.010;5.546;2022-12-18T16:39:38;1.80;77.70
67141;DHT22;54058;52.010;5.546;2022-12-18T16:42:08;1.80;77.30
67141;DHT22;54058;52.010;5.546;2022-12-18T16:44:37;1.80;78.00
67141;DHT22;54058;52.010;5.546;2022-12-18T16:47:03;1.80;77.70
67141;DHT22;54058;52.010;5.546;2022-12-18T16:49:29;1.80;77.90
67141;DHT22;54058;52.010;5.546;2022-12-18T16:51:55;1.90;78.20
67141;DHT22;54058;52.010;5.546;2022-12-18T16:54:20;1.90;78.20
67141;DHT22;54058;52.010;5.546;2022-12-18T16:56:46;1.90;77.50
67141;DHT22;54058;52.010;5.546;2022-12-18T16:59:15;2.00;78.60
67141;DHT22;54058;52.010;5.546;2022-12-18T17:01:41;2.00;77.90
67141;DHT22;54058;52.010;5.546;2022-12-18T17:04:07;1.90;77.30
67141;DHT22;54058;52.010;5.546;2022-12-18T17:06:35;1.90;77.50
67141;DHT22;54058;52.010;5.546;2022-12-18T17:09:06;1.90;77.70
67141;DHT22;54058;52.010;5.546;2022-12-18T17:11:34;1.90;77.60
67141;DHT22;54058;52.010;5.546;2022-12-18T17:14:06;1.90;77.90
67141;DHT22;54058;52.010;5.546;2022-12-18T17:16:32;2.00;78.20
67141;DHT22;54058;52.010;5.546;2022-12-18T17:18:58;2.00;77.50
67141;DHT22;54058;52.010;5.546;2022-12-18T17:21:23;2.00;78.10
67141;DHT22;54058;52.010;5.546;2022-12-18T17:23:49;2.00;77.60
67141;DHT22;54058;52.010;5.546;2022-12-18T17:26:15;2.00;77.90
67141;DHT22;54058;52.010;5.546;2022-12-18T17:28:41;2.00;77.90